createdAt,value
2017-11-16T00:01:41.049Z,38.58
2017-11-16T00:04:07.288Z,36.63
2017-11-16T00:06:33.519Z,38.15
2017-11-16T00:08:59.764Z,38.95
2017-11-16T00:11:26.403Z,32.80
2017-11-16T00:13:53.013Z,37.47
2017-11-16T00:16:19.259Z,40.33
2017-11-16T00:18:45.503Z,38.70
2017-11-16T00:21:12.131Z,42.00
2017-11-16T00:23:38.752Z,42.50
2017-11-16T00:26:04.978Z,36.95
2017-11-16T00:28:31.208Z,39.28
2017-11-16T00:30:57.445Z,41.53
2017-11-16T00:33:23.644Z,37.72
2017-11-16T00:35:49.877Z,39.47
2017-11-16T00:38:16.122Z,39.97
2017-11-16T00:40:42.359Z,41.80
2017-11-16T00:43:08.562Z,42.03
2017-11-16T00:45:34.775Z,36.70
2017-11-16T00:48:01.032Z,40.28
2017-11-16T00:50:27.281Z,38.10
2017-11-16T00:52:53.898Z,40.53
2017-11-16T00:55:20.114Z,41.70
2017-11-16T00:57:46.354Z,47.78
2017-11-16T01:00:12.565Z,50.15
2017-11-16T01:02:38.788Z,43.75
2017-11-16T01:05:05.055Z,44.58
2017-11-16T01:07:31.661Z,47.45
2017-11-16T01:09:57.922Z,45.78
2017-11-16T01:12:24.153Z,40.03
2017-11-16T01:14:50.388Z,46.53
2017-11-16T01:17:16.971Z,41.30
2017-11-16T01:19:43.194Z,46.42
2017-11-16T01:22:09.439Z,44.42
2017-11-16T01:24:35.661Z,44.17
2017-11-16T01:27:01.912Z,43.87
2017-11-16T01:29:28.130Z,50.38
2017-11-16T01:31:54.328Z,49.35
2017-11-16T01:34:20.574Z,45.55
2017-11-16T01:36:46.778Z,45.58
2017-11-16T01:39:13.036Z,48.53
2017-11-16T01:41:39.277Z,47.17
2017-11-16T01:44:05.523Z,43.20
2017-11-16T01:46:31.795Z,45.75
2017-11-16T01:48:58.004Z,46.80
2017-11-16T01:51:24.264Z,46.53
2017-11-16T01:53:50.504Z,43.78
2017-11-16T01:56:16.748Z,42.75
2017-11-16T01:58:43.044Z,53.55
2017-11-16T02:01:09.279Z,48.25
2017-11-16T02:03:35.541Z,52.38
2017-11-16T02:06:01.804Z,47.95
2017-11-16T02:08:28.373Z,49.67
2017-11-16T02:10:54.620Z,51.50
2017-11-16T02:13:20.894Z,48.10
2017-11-16T02:15:47.514Z,48.35
2017-11-16T02:18:14.151Z,48.70
2017-11-16T02:20:40.765Z,49.47
2017-11-16T02:23:07.072Z,53.85
2017-11-16T02:25:33.315Z,49.90
2017-11-16T02:27:59.558Z,47.47
2017-11-16T02:30:25.819Z,47.70
2017-11-16T02:32:52.066Z,45.67
2017-11-16T02:35:18.337Z,49.42
2017-11-16T02:37:44.554Z,51.42
2017-11-16T02:40:10.837Z,49.47
2017-11-16T02:42:37.488Z,50.20
2017-11-16T02:45:03.745Z,48.30
2017-11-16T02:47:30.041Z,48.60
2017-11-16T02:49:56.303Z,42.55
2017-11-16T02:52:22.573Z,46.05
2017-11-16T02:54:49.204Z,47.60
2017-11-16T02:57:15.466Z,48.05
2017-11-16T02:59:41.748Z,47.47
2017-11-16T03:02:08.010Z,43.97
2017-11-16T03:04:34.629Z,45.35
2017-11-16T03:07:00.871Z,38.58
2017-11-16T03:09:27.116Z,47.20
2017-11-16T03:11:53.655Z,46.05
2017-11-16T03:14:19.900Z,47.22
2017-11-16T03:16:46.134Z,53.42
2017-11-16T03:19:12.422Z,49.78
2017-11-16T03:21:38.635Z,54.95
2017-11-16T03:24:05.253Z,49.08
2017-11-16T03:26:31.540Z,50.28
2017-11-16T03:28:57.807Z,54.97
2017-11-16T03:31:24.049Z,51.50
2017-11-16T03:33:50.276Z,54.08
2017-11-16T03:36:16.805Z,48.63
2017-11-16T03:38:43.057Z,53.22
2017-11-16T03:41:09.320Z,57.92
2017-11-16T03:43:35.560Z,48.13
2017-11-16T03:46:01.789Z,54.92
2017-11-16T03:48:28.071Z,58.13
2017-11-16T03:50:54.693Z,52.33
2017-11-16T03:53:20.947Z,51.40
2017-11-16T03:55:47.562Z,54.42
2017-11-16T03:58:13.781Z,53.17
2017-11-16T04:00:40.031Z,56.78
2017-11-16T04:03:06.614Z,50.40
2017-11-16T04:05:32.885Z,57.38
2017-11-16T04:07:59.106Z,48.83
2017-11-16T04:10:25.348Z,51.65
2017-11-16T04:12:51.990Z,49.05
2017-11-16T04:15:18.603Z,53.55
2017-11-16T04:17:44.870Z,45.28
2017-11-16T04:20:11.112Z,51.83
2017-11-16T04:22:37.353Z,44.72
2017-11-16T04:25:03.596Z,42.00
2017-11-16T04:27:29.853Z,48.80
2017-11-16T04:29:56.115Z,47.95
2017-11-16T04:32:22.402Z,44.13
2017-11-16T04:34:48.636Z,46.15
2017-11-16T04:37:14.869Z,46.30
2017-11-16T04:39:41.493Z,49.00
2017-11-16T04:42:07.734Z,37.63
2017-11-16T04:44:33.947Z,42.97
2017-11-16T04:47:00.203Z,40.35
2017-11-16T04:49:26.802Z,34.15
2017-11-16T04:51:53.059Z,36.47
2017-11-16T04:54:19.285Z,38.42
2017-11-16T04:56:45.501Z,41.55
2017-11-16T04:59:11.704Z,41.72
2017-11-16T05:01:37.938Z,36.03
2017-11-16T05:04:04.181Z,37.20
2017-11-16T05:06:30.408Z,40.80
2017-11-16T05:08:56.686Z,35.67
2017-11-16T05:11:22.926Z,37.45
2017-11-16T05:13:49.177Z,34.55
2017-11-16T05:16:15.439Z,38.92
2017-11-16T05:18:41.676Z,33.75
2017-11-16T05:21:08.329Z,34.13
2017-11-16T05:23:34.607Z,32.10
2017-11-16T05:26:00.850Z,32.95
2017-11-16T05:28:27.073Z,33.50
2017-11-16T05:30:53.305Z,34.67
2017-11-16T05:33:19.576Z,30.75
2017-11-16T05:35:45.810Z,32.08
2017-11-16T05:38:12.103Z,34.55
2017-11-16T05:40:38.370Z,39.45
2017-11-16T05:43:04.647Z,37.80
2017-11-16T05:45:30.927Z,39.78
2017-11-16T05:47:57.209Z,35.97
2017-11-16T05:50:23.522Z,31.23
2017-11-16T05:52:49.790Z,38.95
2017-11-16T05:55:16.818Z,37.05
2017-11-16T05:57:43.079Z,31.73
2017-11-16T06:00:09.354Z,41.45
2017-11-16T06:02:35.626Z,28.75
2017-11-16T06:05:01.918Z,29.40
2017-11-16T06:07:28.162Z,29.37
2017-11-16T06:09:54.388Z,29.25
2017-11-16T06:12:20.597Z,29.98
2017-11-16T06:14:46.849Z,35.45
2017-11-16T06:17:13.110Z,31.52
2017-11-16T06:19:39.375Z,32.47
2017-11-16T06:22:05.589Z,33.90
2017-11-16T06:24:32.174Z,33.47
2017-11-16T06:26:58.390Z,36.20
2017-11-16T06:29:24.620Z,30.77
2017-11-16T06:31:51.461Z,30.45
2017-11-16T06:34:17.700Z,29.60
2017-11-16T06:36:43.937Z,31.80
2017-11-16T06:39:10.518Z,31.10
2017-11-16T06:41:36.757Z,28.55
2017-11-16T06:44:03.017Z,28.62
2017-11-16T06:46:29.228Z,25.73
2017-11-16T06:48:55.471Z,27.15
2017-11-16T06:51:21.679Z,27.83
2017-11-16T06:53:47.931Z,23.83
2017-11-16T06:56:14.145Z,24.77
2017-11-16T06:58:40.401Z,30.90
2017-11-16T07:01:07.013Z,33.45
2017-11-16T07:03:33.238Z,27.08
2017-11-16T07:05:59.483Z,28.73
2017-11-16T07:08:25.695Z,29.25
2017-11-16T07:10:51.916Z,23.00
2017-11-16T07:13:18.125Z,28.20
2017-11-16T07:15:44.341Z,23.92
2017-11-16T07:18:10.591Z,27.10
2017-11-16T07:20:36.819Z,25.70
2017-11-16T07:23:03.091Z,23.77
2017-11-16T07:25:29.696Z,25.20
2017-11-16T07:27:55.923Z,25.67
2017-11-16T07:30:22.136Z,28.52
2017-11-16T07:32:48.340Z,28.25
2017-11-16T07:35:14.557Z,21.92
2017-11-16T07:37:40.781Z,24.73
2017-11-16T07:40:07.079Z,20.77
2017-11-16T07:42:33.326Z,29.87
2017-11-16T07:44:59.947Z,25.15
2017-11-16T07:47:26.190Z,25.33
2017-11-16T07:49:52.802Z,26.00
2017-11-16T07:52:19.091Z,25.58
2017-11-16T07:54:45.388Z,24.15
2017-11-16T07:57:12.037Z,23.67
2017-11-16T07:59:38.286Z,24.12
2017-11-16T08:02:04.547Z,29.48
2017-11-16T08:04:30.796Z,25.37
2017-11-16T08:06:57.028Z,22.75
2017-11-16T08:09:23.658Z,25.98
2017-11-16T08:11:49.964Z,23.33
2017-11-16T08:14:16.214Z,23.98
2017-11-16T08:16:42.501Z,28.62
2017-11-16T08:19:08.754Z,24.08
2017-11-16T08:21:35.057Z,22.75
2017-11-16T08:24:01.291Z,29.63
2017-11-16T08:26:27.871Z,26.92
2017-11-16T08:28:54.136Z,24.90
2017-11-16T08:31:20.340Z,21.42
2017-11-16T08:33:46.958Z,26.77
2017-11-16T08:36:13.219Z,25.20
2017-11-16T08:38:39.499Z,22.20
2017-11-16T08:41:05.770Z,21.98
2017-11-16T08:43:32.667Z,27.05
2017-11-16T08:45:58.935Z,20.60
2017-11-16T08:48:25.589Z,27.08
2017-11-16T08:50:51.860Z,23.67
2017-11-16T08:53:18.133Z,23.42
2017-11-16T08:55:44.442Z,22.45
2017-11-16T08:58:10.721Z,27.75
2017-11-16T09:00:37.018Z,23.05
2017-11-16T09:03:03.282Z,24.27
2017-11-16T09:05:29.829Z,21.05
2017-11-16T09:07:56.084Z,24.95
2017-11-16T09:10:22.393Z,26.42
2017-11-16T09:12:48.677Z,21.15
2017-11-16T09:15:14.991Z,22.52
2017-11-16T09:17:41.634Z,22.87
2017-11-16T09:20:08.278Z,24.23
2017-11-16T09:22:34.951Z,26.40
2017-11-16T09:25:01.205Z,26.25
2017-11-16T09:27:27.475Z,26.58
2017-11-16T09:29:53.746Z,27.15
2017-11-16T09:32:20.052Z,22.23
2017-11-16T09:34:46.346Z,25.65
2017-11-16T09:37:12.688Z,27.58
2017-11-16T09:39:38.995Z,23.83
2017-11-16T09:42:05.346Z,22.83
2017-11-16T09:44:31.620Z,23.77
2017-11-16T09:46:57.918Z,20.27
2017-11-16T09:49:24.217Z,24.95
2017-11-16T09:51:50.513Z,20.95
2017-11-16T09:54:16.772Z,22.70
2017-11-16T09:56:43.072Z,26.17
2017-11-16T09:59:09.337Z,24.83
2017-11-16T10:01:35.597Z,27.85
2017-11-16T10:04:01.843Z,28.90
2017-11-16T10:06:28.119Z,29.42
2017-11-16T10:08:54.338Z,24.55
2017-11-16T10:11:20.606Z,26.02
2017-11-16T10:13:47.210Z,25.00
2017-11-16T10:16:13.460Z,27.40
2017-11-16T10:18:40.087Z,22.58
2017-11-16T10:21:06.362Z,26.23
2017-11-16T10:23:32.613Z,25.05
2017-11-16T10:25:58.845Z,23.42
2017-11-16T10:28:25.396Z,27.52
2017-11-16T10:30:51.641Z,26.58
2017-11-16T10:33:17.887Z,23.48
2017-11-16T10:35:44.197Z,23.05
2017-11-16T10:38:10.480Z,27.05
2017-11-16T10:40:36.730Z,23.10
2017-11-16T10:43:03.019Z,25.27
2017-11-16T10:45:29.297Z,25.27
2017-11-16T10:47:55.608Z,22.90
2017-11-16T10:50:21.922Z,26.55
2017-11-16T10:52:48.171Z,23.98
2017-11-16T10:55:14.426Z,26.95
2017-11-16T10:57:40.718Z,28.70
2017-11-16T11:00:07.006Z,24.08
2017-11-16T11:02:33.254Z,26.92
2017-11-16T11:04:59.501Z,29.00
2017-11-16T11:07:25.743Z,24.50
2017-11-16T11:09:52.018Z,28.02
2017-11-16T11:12:18.305Z,24.90
2017-11-16T11:14:44.573Z,27.23
2017-11-16T11:17:11.187Z,24.17
2017-11-16T11:19:37.448Z,31.35
2017-11-16T11:22:04.063Z,31.45
2017-11-16T11:24:30.338Z,27.75
2017-11-16T11:26:56.572Z,60.00
2017-11-16T11:29:22.896Z,27.65
2017-11-16T11:31:49.139Z,23.58
2017-11-16T11:34:15.364Z,22.33
2017-11-16T11:36:41.608Z,19.40
2017-11-16T11:39:07.839Z,25.50
2017-11-16T11:41:34.117Z,22.48
2017-11-16T11:44:00.377Z,24.80
2017-11-16T11:46:26.626Z,22.67
2017-11-16T11:48:52.871Z,26.12
2017-11-16T11:51:19.190Z,22.00
2017-11-16T11:53:45.432Z,26.10
2017-11-16T11:56:11.683Z,20.92
2017-11-16T11:58:38.316Z,26.58
2017-11-16T12:01:04.950Z,26.52
2017-11-16T12:03:31.611Z,27.33
2017-11-16T12:05:57.860Z,29.02
2017-11-16T12:08:24.426Z,25.60
2017-11-16T12:10:50.677Z,23.83
2017-11-16T12:13:17.296Z,24.65
2017-11-16T12:15:43.595Z,30.58
2017-11-16T12:18:09.827Z,26.08
2017-11-16T12:20:36.074Z,27.30
2017-11-16T12:23:02.341Z,23.30
2017-11-16T12:25:28.963Z,26.60
2017-11-16T12:27:55.255Z,23.25
2017-11-16T12:30:21.571Z,20.48
2017-11-16T12:32:47.852Z,29.65
2017-11-16T12:35:14.121Z,22.33
2017-11-16T12:37:40.421Z,24.00
2017-11-16T12:40:07.101Z,27.90
2017-11-16T12:42:33.440Z,23.30
2017-11-16T12:44:59.746Z,27.98
2017-11-16T12:47:26.018Z,28.75
2017-11-16T12:49:52.346Z,26.40
2017-11-16T12:52:18.640Z,25.50
2017-11-16T12:54:44.930Z,26.73
2017-11-16T12:57:11.235Z,25.10
2017-11-16T12:59:37.479Z,27.30
2017-11-16T13:02:03.758Z,24.67
2017-11-16T13:04:30.027Z,23.90
2017-11-16T13:06:56.312Z,32.97
2017-11-16T13:09:22.575Z,27.02
2017-11-16T13:11:48.810Z,23.38
2017-11-16T13:14:15.059Z,28.75
2017-11-16T13:16:41.712Z,24.40
2017-11-16T13:19:08.348Z,26.60
2017-11-16T13:21:34.631Z,25.77
2017-11-16T13:24:01.189Z,28.12
2017-11-16T13:26:27.440Z,26.98
2017-11-16T13:28:54.058Z,25.70
2017-11-16T13:31:20.335Z,24.65
2017-11-16T13:33:46.568Z,29.08
2017-11-16T13:36:12.847Z,27.90
2017-11-16T13:38:39.520Z,29.20
2017-11-16T13:41:05.870Z,25.30
2017-11-16T13:43:32.164Z,25.70
2017-11-16T13:45:58.758Z,23.12
2017-11-16T13:48:25.020Z,24.83
2017-11-16T13:50:51.231Z,26.55
2017-11-16T13:53:17.896Z,24.67
2017-11-16T13:55:44.135Z,24.05
2017-11-16T13:58:10.353Z,25.95
2017-11-16T14:00:36.659Z,29.87
2017-11-16T14:03:02.923Z,23.87
2017-11-16T14:05:29.183Z,23.70
2017-11-16T14:07:55.430Z,25.00
2017-11-16T14:10:21.728Z,26.95
2017-11-16T14:12:49.327Z,40.88
2017-11-16T14:15:16.174Z,29.12
2017-11-16T14:17:42.427Z,22.15
2017-11-16T14:20:09.027Z,22.90
2017-11-16T14:22:35.290Z,20.27
2017-11-16T14:25:01.563Z,23.45
2017-11-16T14:27:27.806Z,27.17
2017-11-16T14:29:54.018Z,28.20
2017-11-16T14:32:20.281Z,25.58
2017-11-16T14:34:46.513Z,25.00
2017-11-16T14:37:13.134Z,25.52
2017-11-16T14:39:39.384Z,27.73
2017-11-16T14:42:06.431Z,40.53
2017-11-16T14:44:33.239Z,44.08
2017-11-16T14:46:59.619Z,34.30
2017-11-16T14:49:25.887Z,27.15
2017-11-16T14:51:52.177Z,20.20
2017-11-16T14:54:18.505Z,22.55
2017-11-16T14:56:44.802Z,20.77
2017-11-16T14:59:11.062Z,22.73
2017-11-16T15:01:37.675Z,24.83
2017-11-16T15:04:03.936Z,25.98
2017-11-16T15:06:30.405Z,20.77
2017-11-16T15:08:56.639Z,24.20
2017-11-16T15:11:22.888Z,22.62
2017-11-16T15:13:49.151Z,22.83
2017-11-16T15:16:15.772Z,29.37
2017-11-16T15:18:42.050Z,22.00
2017-11-16T15:21:08.318Z,32.00
2017-11-16T15:23:34.567Z,31.60
2017-11-16T15:26:01.215Z,24.90
2017-11-16T15:28:27.467Z,25.70
2017-11-16T15:30:53.700Z,23.08
2017-11-16T15:33:19.982Z,30.98
2017-11-16T15:35:46.595Z,27.10
2017-11-16T15:38:12.880Z,33.20
2017-11-16T15:40:39.155Z,31.87
2017-11-16T15:43:05.426Z,33.40
2017-11-16T15:45:31.644Z,31.83
2017-11-16T15:47:58.279Z,28.10
2017-11-16T15:50:24.927Z,32.90
2017-11-16T15:52:51.220Z,34.13
2017-11-16T15:55:17.535Z,32.67
2017-11-16T15:57:43.735Z,32.25
2017-11-16T16:00:10.008Z,31.90
2017-11-16T16:02:36.264Z,33.40
2017-11-16T16:05:02.949Z,28.40
2017-11-16T16:07:29.207Z,33.35
2017-11-16T16:09:55.459Z,31.25
2017-11-16T16:12:21.733Z,36.42
2017-11-16T16:14:48.119Z,45.83
2017-11-16T16:17:14.389Z,27.50
2017-11-16T16:19:40.647Z,26.20
2017-11-16T16:22:06.907Z,25.98
2017-11-16T16:24:33.528Z,22.85
2017-11-16T16:26:59.777Z,24.23
2017-11-16T16:29:26.402Z,22.20
2017-11-16T16:31:52.993Z,21.87
2017-11-16T16:34:19.219Z,23.05
2017-11-16T16:36:45.485Z,23.45
2017-11-16T16:39:11.757Z,22.48
2017-11-16T16:41:38.027Z,23.33
2017-11-16T16:44:04.273Z,25.62
2017-11-16T16:46:30.508Z,23.67
2017-11-16T16:48:56.749Z,23.62
2017-11-16T16:51:23.021Z,23.17
2017-11-16T16:53:49.266Z,22.55
2017-11-16T16:56:15.519Z,31.52
2017-11-16T16:58:42.607Z,26.50
2017-11-16T17:01:08.886Z,26.37
2017-11-16T17:03:35.180Z,18.15
2017-11-16T17:06:01.451Z,21.85
2017-11-16T17:08:28.095Z,22.65
2017-11-16T17:10:54.726Z,25.85
2017-11-16T17:13:21.004Z,21.15
2017-11-16T17:15:47.214Z,20.37
2017-11-16T17:18:13.434Z,16.77
2017-11-16T17:20:39.746Z,21.42
2017-11-16T17:23:06.041Z,18.80
2017-11-16T17:25:32.301Z,19.35
2017-11-16T17:27:58.940Z,19.62
2017-11-16T17:30:25.270Z,23.00
2017-11-16T17:32:51.529Z,16.15
2017-11-16T17:35:17.804Z,25.27
2017-11-16T17:37:44.053Z,18.33
2017-11-16T17:40:10.339Z,22.77
2017-11-16T17:42:37.276Z,23.80
2017-11-16T17:45:03.586Z,25.55
2017-11-16T17:47:29.878Z,25.80
2017-11-16T17:49:56.187Z,26.37
2017-11-16T17:52:22.472Z,24.10
2017-11-16T17:54:48.734Z,21.17
2017-11-16T17:57:15.164Z,21.83
2017-11-16T17:59:41.425Z,26.85
2017-11-16T18:02:07.698Z,22.67
2017-11-16T18:04:33.954Z,23.27
2017-11-16T18:07:00.521Z,22.67
2017-11-16T18:09:26.755Z,21.20
2017-11-16T18:11:53.001Z,19.58
2017-11-16T18:14:19.652Z,20.80
2017-11-16T18:16:45.933Z,26.48
2017-11-16T18:19:12.228Z,23.02
2017-11-16T18:21:38.499Z,19.95
2017-11-16T18:24:04.868Z,28.90
2017-11-16T18:26:31.133Z,26.27
2017-11-16T18:28:57.400Z,22.75
2017-11-16T18:31:24.028Z,26.95
2017-11-16T18:33:50.315Z,20.48
2017-11-16T18:36:16.907Z,28.40
2017-11-16T18:38:43.494Z,21.40
2017-11-16T18:41:09.725Z,22.17
2017-11-16T18:43:36.011Z,24.45
2017-11-16T18:46:02.647Z,24.10
2017-11-16T18:48:29.579Z,22.00
2017-11-16T18:50:56.099Z,38.92
2017-11-16T18:53:23.760Z,24.73
2017-11-16T18:55:50.009Z,27.35
2017-11-16T18:58:16.640Z,19.60
2017-11-16T19:00:43.049Z,20.52
2017-11-16T19:03:09.294Z,22.45
2017-11-16T19:05:35.604Z,17.60
2017-11-16T19:08:01.915Z,21.33
2017-11-16T19:10:28.187Z,22.17
2017-11-16T19:12:54.544Z,33.33
2017-11-16T19:15:20.950Z,35.42
2017-11-16T19:17:47.519Z,29.85
2017-11-16T19:20:13.995Z,33.15
2017-11-16T19:22:40.341Z,37.05
2017-11-16T19:25:06.599Z,30.62
2017-11-16T19:27:33.269Z,26.73
2017-11-16T19:29:59.486Z,30.88
2017-11-16T19:32:25.717Z,27.85
2017-11-16T19:34:52.002Z,27.00
2017-11-16T19:37:18.293Z,30.70
2017-11-16T19:39:44.586Z,31.05
2017-11-16T19:42:10.867Z,27.27
2017-11-16T19:44:37.225Z,33.35
2017-11-16T19:47:04.069Z,28.40
2017-11-16T19:49:30.709Z,37.50
2017-11-16T19:51:57.427Z,33.40
2017-11-16T19:54:23.719Z,30.45
2017-11-16T19:56:50.422Z,31.90
2017-11-16T19:59:17.245Z,34.55
2017-11-16T20:01:43.569Z,34.22
2017-11-16T20:04:10.331Z,26.70
2017-11-16T20:06:36.652Z,27.92
2017-11-16T20:09:03.088Z,21.35
2017-11-16T20:11:29.631Z,18.52
2017-11-16T20:13:56.012Z,16.85
2017-11-16T20:16:22.403Z,15.55
2017-11-16T20:18:48.657Z,18.73
2017-11-16T20:21:15.382Z,17.98
2017-11-16T20:23:41.830Z,19.67
2017-11-16T20:26:08.210Z,14.45
2017-11-16T20:28:34.741Z,19.20
2017-11-16T20:31:02.444Z,20.15
2017-11-16T20:33:28.760Z,19.87
2017-11-16T20:35:55.548Z,18.70
2017-11-16T20:38:22.951Z,17.15
2017-11-16T20:40:55.358Z,19.15
2017-11-16T20:43:22.561Z,21.00
2017-11-16T20:45:53.110Z,22.75
2017-11-16T20:48:25.716Z,22.50
2017-11-16T20:50:58.174Z,27.48
2017-11-16T20:53:30.608Z,21.30
2017-11-16T20:55:57.070Z,26.67
2017-11-16T20:58:23.427Z,28.05
2017-11-16T21:00:49.910Z,28.80
2017-11-16T21:05:48.219Z,26.85
2017-11-16T21:08:14.616Z,36.90
2017-11-16T21:10:41.006Z,30.50
2017-11-16T21:13:07.302Z,23.30
2017-11-16T21:15:33.590Z,25.60
2017-11-16T21:17:59.849Z,26.05
2017-11-16T21:20:26.237Z,20.23
2017-11-16T21:22:52.510Z,21.85
2017-11-16T21:25:18.842Z,22.50
2017-11-16T21:27:45.143Z,22.95
2017-11-16T21:30:11.501Z,22.42
2017-11-16T21:32:38.647Z,23.73
2017-11-16T21:35:04.923Z,29.90
2017-11-16T21:37:31.178Z,19.67
2017-11-16T21:39:57.444Z,26.52
2017-11-16T21:42:23.733Z,24.58
2017-11-16T21:44:49.999Z,22.02
2017-11-16T21:47:16.283Z,23.92
2017-11-16T21:49:42.545Z,24.42
2017-11-16T21:52:08.858Z,24.92
2017-11-16T21:54:35.093Z,26.60
2017-11-16T21:57:01.334Z,23.70
2017-11-16T21:59:27.604Z,23.50
2017-11-16T22:01:53.835Z,28.23
2017-11-16T22:04:20.721Z,25.92
2017-11-16T22:06:46.987Z,23.98
2017-11-16T22:09:13.594Z,21.42
2017-11-16T22:11:39.876Z,24.25
2017-11-16T22:14:06.124Z,24.48
2017-11-16T22:16:32.714Z,28.08
2017-11-16T22:18:59.336Z,26.20
2017-11-16T22:21:25.599Z,24.52
2017-11-16T22:23:51.871Z,28.42
2017-11-16T22:26:18.127Z,28.05
2017-11-16T22:28:44.381Z,27.60
2017-11-16T22:31:10.598Z,24.08
2017-11-16T22:33:37.193Z,26.65
2017-11-16T22:36:03.472Z,27.67
2017-11-16T22:38:29.746Z,26.42
2017-11-16T22:40:55.992Z,25.45
2017-11-16T22:43:22.218Z,27.20
2017-11-16T22:45:48.459Z,29.65
2017-11-16T22:48:14.696Z,30.05
2017-11-16T22:50:40.921Z,32.85
2017-11-16T22:53:07.174Z,28.70
2017-11-16T22:55:33.439Z,34.70
2017-11-16T22:57:59.681Z,29.73
2017-11-16T23:00:25.942Z,26.65
2017-11-16T23:02:52.223Z,27.48
2017-11-16T23:05:18.470Z,29.67
2017-11-16T23:07:45.050Z,29.85
2017-11-16T23:10:11.289Z,29.10
2017-11-16T23:12:37.501Z,25.80
2017-11-16T23:15:03.769Z,31.85
2017-11-16T23:17:30.002Z,27.25
2017-11-16T23:19:56.253Z,21.45
2017-11-16T23:22:22.581Z,26.77
2017-11-16T23:24:48.817Z,26.08
2017-11-16T23:27:15.078Z,36.42
2017-11-16T23:29:41.325Z,23.35
2017-11-16T23:32:07.582Z,32.03
2017-11-16T23:34:33.815Z,27.17
2017-11-16T23:37:00.049Z,25.42
2017-11-16T23:39:26.314Z,26.30
2017-11-16T23:41:52.912Z,29.25
2017-11-16T23:44:19.558Z,24.10
2017-11-16T23:46:45.786Z,27.30
2017-11-16T23:49:12.002Z,24.50
2017-11-16T23:51:38.255Z,25.12
2017-11-16T23:54:04.492Z,26.48
2017-11-16T23:56:31.115Z,21.75
2017-11-16T23:58:57.347Z,28.50
